createdAt,value
2022-11-16T00:00:32.438Z,1.98
2022-11-16T00:03:05.504Z,1.88
2022-11-16T00:05:33.980Z,2.30
2022-11-16T00:08:02.245Z,2.33
2022-11-16T00:10:30.582Z,1.88
2022-11-16T00:12:58.933Z,1.52
2022-11-16T00:15:27.833Z,2.15
2022-11-16T00:17:57.409Z,2.60
2022-11-16T00:20:27.034Z,2.92
2022-11-16T00:22:55.335Z,3.08
2022-11-16T00:25:23.741Z,2.88
2022-11-16T00:27:51.949Z,3.15
2022-11-16T00:30:20.414Z,3.30
2022-11-16T00:32:48.741Z,3.58
2022-11-16T00:35:17.300Z,4.07
2022-11-16T00:37:47.065Z,4.38
2022-11-16T00:40:15.540Z,5.32
2022-11-16T00:42:44.145Z,5.20
2022-11-16T00:45:12.637Z,6.00
2022-11-16T00:47:42.158Z,6.30
2022-11-16T00:50:10.863Z,6.63
2022-11-16T00:52:39.314Z,7.38
2022-11-16T00:55:09.650Z,7.30
2022-11-16T00:57:37.881Z,7.95
2022-11-16T01:00:07.167Z,8.23
2022-11-16T01:02:35.456Z,9.30
2022-11-16T01:05:03.713Z,8.45
2022-11-16T01:07:32.180Z,8.95
2022-11-16T01:10:00.420Z,7.95
2022-11-16T01:12:29.110Z,7.88
2022-11-16T01:14:57.417Z,8.65
2022-11-16T01:17:25.917Z,6.78
2022-11-16T01:19:54.325Z,7.15
2022-11-16T01:22:22.669Z,7.32
2022-11-16T01:24:50.920Z,6.78
2022-11-16T01:27:19.252Z,4.93
2022-11-16T01:29:48.977Z,5.75
2022-11-16T01:32:17.231Z,5.28
2022-11-16T01:34:45.570Z,4.63
2022-11-16T01:37:13.960Z,4.75
2022-11-16T01:39:42.380Z,4.63
2022-11-16T01:42:18.046Z,4.30
2022-11-16T01:45:34.341Z,4.15
2022-11-16T01:48:04.329Z,3.83
2022-11-16T01:50:32.747Z,3.53
2022-11-16T01:53:05.427Z,3.40
2022-11-16T01:55:35.758Z,3.00
2022-11-16T01:58:04.605Z,3.67
2022-11-16T02:00:32.916Z,3.15
2022-11-16T02:03:01.338Z,2.95
2022-11-16T02:05:40.371Z,2.80
2022-11-16T02:08:42.631Z,2.85
2022-11-16T02:11:34.897Z,2.42
2022-11-16T02:15:17.914Z,1.65
2022-11-16T02:18:01.074Z,2.03
2022-11-16T02:21:02.500Z,2.17
2022-11-16T02:24:07.819Z,2.83
2022-11-16T02:27:11.432Z,2.50
2022-11-16T02:29:44.336Z,3.70
2022-11-16T02:32:18.564Z,2.33
2022-11-16T02:34:52.741Z,2.33
2022-11-16T02:37:24.303Z,2.28
2022-11-16T02:39:57.634Z,2.00
2022-11-16T02:42:32.432Z,2.35
2022-11-16T02:45:03.452Z,1.90
2022-11-16T02:47:34.714Z,2.17
2022-11-16T02:50:07.789Z,1.23
2022-11-16T02:52:38.320Z,2.30
2022-11-16T02:55:08.221Z,1.52
2022-11-16T02:57:43.595Z,1.58
2022-11-16T03:00:19.435Z,2.03
2022-11-16T03:02:56.423Z,2.10
2022-11-16T03:05:33.041Z,1.40
2022-11-16T03:08:12.998Z,2.47
2022-11-16T03:11:01.843Z,1.67
2022-11-16T03:13:34.341Z,2.75
2022-11-16T03:16:09.087Z,1.73
2022-11-16T03:18:39.908Z,1.48
2022-11-16T03:21:15.153Z,1.60
2022-11-16T03:23:44.671Z,1.48
2022-11-16T03:26:17.757Z,1.45
2022-11-16T03:28:54.522Z,1.38
2022-11-16T03:31:30.256Z,0.82
2022-11-16T03:34:02.362Z,1.20
2022-11-16T03:36:34.838Z,1.13
2022-11-16T03:39:06.680Z,1.08
2022-11-16T03:41:37.829Z,2.50
2022-11-16T03:44:07.433Z,1.52
2022-11-16T03:46:37.076Z,1.73
2022-11-16T03:49:05.492Z,1.47
2022-11-16T03:51:34.004Z,1.50
2022-11-16T03:54:02.337Z,1.52
2022-11-16T03:56:30.758Z,1.43
2022-11-16T03:59:00.168Z,1.35
2022-11-16T04:01:28.614Z,1.38
2022-11-16T04:03:58.247Z,1.38
2022-11-16T04:06:44.203Z,1.30
2022-11-16T04:09:30.753Z,1.90
2022-11-16T04:12:16.612Z,1.33
2022-11-16T04:15:02.527Z,1.47
2022-11-16T04:17:48.079Z,1.60
2022-11-16T04:20:35.764Z,1.17
2022-11-16T04:23:24.469Z,1.97
2022-11-16T04:25:53.328Z,1.63
2022-11-16T04:28:24.426Z,1.40
2022-11-16T04:31:12.983Z,1.73
2022-11-16T04:34:01.365Z,1.30
2022-11-16T04:36:48.838Z,1.37
2022-11-16T04:39:17.228Z,1.35
2022-11-16T04:42:06.515Z,1.13
2022-11-16T04:44:54.516Z,1.43
2022-11-16T04:47:22.953Z,1.53
2022-11-16T04:49:51.205Z,1.63
2022-11-16T04:52:20.978Z,1.73
2022-11-16T04:54:49.295Z,1.63
2022-11-16T04:57:17.683Z,2.10
2022-11-16T04:59:46.130Z,2.27
2022-11-16T05:02:15.293Z,1.87
2022-11-16T05:04:45.020Z,1.70
2022-11-16T05:07:15.288Z,3.05
2022-11-16T05:09:46.706Z,2.30
2022-11-16T05:12:17.071Z,2.23
2022-11-16T05:14:47.175Z,2.30
2022-11-16T05:17:15.970Z,2.53
2022-11-16T05:20:02.109Z,3.07
2022-11-16T05:22:30.965Z,2.23
2022-11-16T05:25:00.964Z,2.40
2022-11-16T05:27:30.451Z,2.23
2022-11-16T05:29:58.873Z,2.73
2022-11-16T05:32:28.373Z,2.70
2022-11-16T05:34:57.730Z,2.87
2022-11-16T05:37:26.881Z,3.30
2022-11-16T05:39:57.081Z,2.63
2022-11-16T05:42:26.787Z,3.07
2022-11-16T05:44:55.043Z,3.00
2022-11-16T05:47:23.464Z,3.80
2022-11-16T05:49:51.798Z,3.70
2022-11-16T05:52:20.082Z,3.30
2022-11-16T05:54:48.355Z,3.30
2022-11-16T05:57:18.204Z,3.37
2022-11-16T05:59:48.088Z,2.63
2022-11-16T06:02:16.355Z,3.20
2022-11-16T06:04:44.699Z,4.40
2022-11-16T06:07:13.144Z,3.83
2022-11-16T06:09:41.526Z,3.60
2022-11-16T06:12:10.070Z,4.10
2022-11-16T06:14:38.412Z,4.03
2022-11-16T06:17:08.193Z,3.30
2022-11-16T06:19:36.876Z,4.10
2022-11-16T06:22:05.255Z,3.93
2022-11-16T06:24:33.658Z,3.93
2022-11-16T06:27:01.978Z,3.37
2022-11-16T06:29:30.387Z,3.60
2022-11-16T06:31:58.689Z,3.43
2022-11-16T06:34:28.452Z,4.03
2022-11-16T06:36:59.832Z,3.93
2022-11-16T06:39:28.214Z,3.17
2022-11-16T06:41:56.588Z,3.30
2022-11-16T06:45:30.293Z,3.47
2022-11-16T06:47:58.697Z,2.80
2022-11-16T06:50:29.012Z,2.83
2022-11-16T06:53:00.942Z,3.40
2022-11-16T06:55:30.016Z,3.20
2022-11-16T06:57:58.545Z,3.70
2022-11-16T07:00:27.891Z,3.27
2022-11-16T07:02:56.430Z,3.87
2022-11-16T07:05:24.907Z,3.40
2022-11-16T07:07:56.792Z,4.10
2022-11-16T07:10:25.686Z,4.13
2022-11-16T07:12:54.225Z,5.57
2022-11-16T07:15:22.653Z,6.60
2022-11-16T07:17:51.034Z,8.03
2022-11-16T07:20:19.752Z,6.73
2022-11-16T07:22:48.269Z,6.30
2022-11-16T07:25:18.363Z,5.43
2022-11-16T07:27:46.722Z,5.50
2022-11-16T07:30:15.750Z,4.93
2022-11-16T07:32:44.144Z,4.17
2022-11-16T07:35:12.630Z,3.40
2022-11-16T07:37:41.038Z,3.87
2022-11-16T07:40:12.620Z,3.60
2022-11-16T07:42:43.744Z,3.63
2022-11-16T07:45:12.744Z,3.63
2022-11-16T07:47:41.174Z,3.40
2022-11-16T07:50:10.979Z,4.23
2022-11-16T07:52:39.520Z,3.57
2022-11-16T07:55:08.255Z,3.80
2022-11-16T07:57:36.570Z,4.60
2022-11-16T08:00:07.465Z,3.95
2022-11-16T08:02:35.917Z,5.20
2022-11-16T08:05:04.608Z,4.93
2022-11-16T08:07:35.504Z,4.88
2022-11-16T08:10:04.113Z,4.70
2022-11-16T08:12:32.560Z,5.50
2022-11-16T08:15:01.027Z,4.53
2022-11-16T08:17:33.094Z,4.37
2022-11-16T08:20:01.461Z,3.05
2022-11-16T08:22:30.387Z,2.77
2022-11-16T08:24:58.660Z,3.28
2022-11-16T08:27:27.015Z,2.57
2022-11-16T08:29:56.171Z,2.58
2022-11-16T08:32:24.567Z,2.70
2022-11-16T08:34:54.267Z,2.03
2022-11-16T08:37:22.910Z,1.73
2022-11-16T08:39:51.294Z,2.05
2022-11-16T08:42:19.609Z,1.70
2022-11-16T08:44:48.035Z,2.38
2022-11-16T08:47:16.724Z,1.92
2022-11-16T08:49:49.713Z,2.20
2022-11-16T08:52:19.726Z,1.77
2022-11-16T08:54:48.392Z,1.35
2022-11-16T08:57:16.828Z,1.35
2022-11-16T08:59:45.288Z,1.15
2022-11-16T09:02:13.803Z,1.13
2022-11-16T09:04:42.444Z,1.10
2022-11-16T09:07:11.682Z,1.13
2022-11-16T09:09:41.336Z,1.38
2022-11-16T09:12:09.777Z,1.10
2022-11-16T09:14:41.218Z,1.30
2022-11-16T09:17:09.482Z,1.33
2022-11-16T09:19:37.823Z,1.17
2022-11-16T09:22:06.469Z,1.67
2022-11-16T09:24:34.807Z,1.75
2022-11-16T09:27:04.529Z,1.80
2022-11-16T09:29:32.903Z,1.55
2022-11-16T09:32:02.277Z,1.20
2022-11-16T09:34:30.606Z,1.45
2022-11-16T09:37:02.351Z,1.42
2022-11-16T09:39:32.529Z,1.33
2022-11-16T09:42:20.786Z,1.52
2022-11-16T09:45:05.135Z,1.25
2022-11-16T09:47:43.306Z,1.15
2022-11-16T09:50:29.438Z,1.50
2022-11-16T09:53:03.639Z,0.80
2022-11-16T09:55:36.212Z,1.20
2022-11-16T09:58:13.222Z,0.70
2022-11-16T10:00:45.138Z,1.15
2022-11-16T10:03:15.239Z,0.88
2022-11-16T10:05:49.981Z,0.90
2022-11-16T10:08:24.026Z,2.13
2022-11-16T10:11:00.804Z,0.93
2022-11-16T10:13:46.523Z,1.00
2022-11-16T10:16:21.267Z,0.90
2022-11-16T10:18:56.867Z,1.00
2022-11-16T10:21:42.829Z,0.98
2022-11-16T10:24:42.866Z,1.65
2022-11-16T10:27:35.059Z,0.80
2022-11-16T10:30:16.967Z,2.25
2022-11-16T10:32:51.996Z,2.45
2022-11-16T10:35:26.959Z,1.35
2022-11-16T10:37:59.147Z,1.15
2022-11-16T10:40:30.442Z,1.00
2022-11-16T10:43:04.003Z,1.17
2022-11-16T10:45:46.225Z,1.17
2022-11-16T10:48:24.198Z,1.10
2022-11-16T10:50:53.982Z,0.68
2022-11-16T10:53:29.067Z,0.55
2022-11-16T10:56:18.676Z,0.40
2022-11-16T10:58:56.586Z,0.70
2022-11-16T11:01:53.041Z,0.70
2022-11-16T11:04:24.707Z,0.80
2022-11-16T11:06:54.904Z,1.17
2022-11-16T11:09:31.996Z,1.00
2022-11-16T11:12:20.657Z,0.80
2022-11-16T11:15:05.857Z,0.88
2022-11-16T11:17:37.195Z,0.82
2022-11-16T11:20:08.054Z,0.80
2022-11-16T11:22:44.245Z,0.70
2022-11-16T11:25:21.803Z,0.98
2022-11-16T11:27:51.645Z,1.60
2022-11-16T11:30:22.066Z,1.25
2022-11-16T11:32:52.949Z,0.60
2022-11-16T11:35:25.853Z,1.10
2022-11-16T11:37:58.999Z,0.60
2022-11-16T11:40:31.179Z,1.00
2022-11-16T11:43:01.573Z,0.82
2022-11-16T11:45:36.851Z,1.05
2022-11-16T11:48:20.694Z,0.60
2022-11-16T11:50:53.953Z,0.50
2022-11-16T11:53:40.139Z,0.63
2022-11-16T11:56:11.231Z,0.60
2022-11-16T11:58:41.498Z,0.32
2022-11-16T12:01:50.624Z,0.73
2022-11-16T12:04:58.091Z,0.82
2022-11-16T12:07:44.566Z,0.88
2022-11-16T12:10:22.840Z,2.38
2022-11-16T12:13:37.588Z,0.90
2022-11-16T12:16:18.082Z,0.63
2022-11-16T12:19:01.515Z,0.63
2022-11-16T12:21:41.307Z,0.52
2022-11-16T12:24:22.723Z,0.93
2022-11-16T12:27:02.325Z,0.60
2022-11-16T12:29:40.503Z,0.60
2022-11-16T12:32:32.767Z,1.35
2022-11-16T12:35:16.147Z,0.40
2022-11-16T12:37:51.488Z,0.80
2022-11-16T12:40:37.056Z,0.80
2022-11-16T12:43:13.784Z,0.63
2022-11-16T12:46:14.122Z,0.73
2022-11-16T12:49:22.600Z,0.85
2022-11-16T12:52:01.001Z,1.02
2022-11-16T12:55:25.349Z,0.47
2022-11-16T12:58:08.706Z,0.73
2022-11-16T13:00:50.465Z,0.70
2022-11-16T13:03:30.196Z,0.73
2022-11-16T13:06:03.249Z,0.50
2022-11-16T13:08:46.409Z,0.70
2022-11-16T13:11:21.699Z,1.33
2022-11-16T13:13:57.031Z,0.80
2022-11-16T13:16:26.315Z,1.27
2022-11-16T13:18:56.203Z,1.50
2022-11-16T13:21:37.506Z,1.00
2022-11-16T13:24:21.853Z,0.80
2022-11-16T13:26:58.380Z,1.13
2022-11-16T13:29:35.287Z,0.95
2022-11-16T13:32:10.342Z,0.85
2022-11-16T13:34:40.776Z,1.08
2022-11-16T13:37:42.440Z,0.63
2022-11-16T13:40:26.360Z,0.88
2022-11-16T13:43:08.191Z,0.88
2022-11-16T13:45:42.294Z,0.70
2022-11-16T13:48:20.502Z,1.00
2022-11-16T13:50:52.363Z,0.70
2022-11-16T13:54:25.183Z,0.70
2022-11-16T13:56:21.797Z,0.70
2022-11-16T13:58:55.665Z,0.60
2022-11-16T14:01:26.665Z,0.73
2022-11-16T14:04:33.749Z,0.80
2022-11-16T14:07:02.664Z,0.77
2022-11-16T14:09:51.916Z,0.50
2022-11-16T14:12:57.279Z,0.60
2022-11-16T14:15:31.881Z,0.63
2022-11-16T14:18:18.653Z,1.55
2022-11-16T14:20:58.151Z,0.80
2022-11-16T14:23:57.916Z,0.80
2022-11-16T14:26:36.232Z,0.80
2022-11-16T14:29:24.043Z,1.30
2022-11-16T14:31:54.975Z,0.80
2022-11-16T14:34:31.532Z,1.00
2022-11-16T14:37:01.512Z,0.80
2022-11-16T14:39:38.582Z,0.70
2022-11-16T14:42:17.586Z,0.80
2022-11-16T14:44:46.522Z,1.17
2022-11-16T14:47:24.566Z,1.15
2022-11-16T14:49:55.620Z,1.67
2022-11-16T14:52:33.850Z,1.33
2022-11-16T14:55:06.319Z,1.75
2022-11-16T14:57:34.710Z,1.10
2022-11-16T15:00:19.133Z,0.80
2022-11-16T15:02:51.682Z,1.08
2022-11-16T15:05:24.093Z,0.90
2022-11-16T15:07:54.412Z,1.08
2022-11-16T15:10:26.174Z,1.27
2022-11-16T15:12:56.152Z,0.98
2022-11-16T15:15:26.782Z,1.27
2022-11-16T15:18:08.163Z,0.77
2022-11-16T15:20:48.926Z,0.70
2022-11-16T15:23:17.327Z,0.50
2022-11-16T15:25:47.880Z,1.52
2022-11-16T15:28:19.088Z,0.80
2022-11-16T15:30:50.914Z,0.75
2022-11-16T15:33:23.059Z,0.88
2022-11-16T15:35:54.050Z,1.02
2022-11-16T15:38:24.983Z,0.88
2022-11-16T15:40:54.910Z,1.00
2022-11-16T15:43:26.258Z,0.60
2022-11-16T15:45:55.131Z,0.55
2022-11-16T15:48:26.184Z,0.70
2022-11-16T15:51:14.806Z,1.38
2022-11-16T15:53:44.853Z,0.73
2022-11-16T15:56:17.673Z,0.80
2022-11-16T15:58:46.804Z,1.08
2022-11-16T16:01:16.585Z,0.70
2022-11-16T16:03:55.200Z,0.75
2022-11-16T16:06:47.781Z,1.05
2022-11-16T16:09:25.141Z,0.75
2022-11-16T16:11:54.168Z,0.82
2022-11-16T16:14:25.332Z,1.15
2022-11-16T16:16:54.813Z,1.33
2022-11-16T16:19:35.687Z,1.17
2022-11-16T16:22:07.809Z,1.02
2022-11-16T16:24:44.111Z,1.15
2022-11-16T16:27:17.962Z,1.60
2022-11-16T16:29:47.652Z,1.15
2022-11-16T16:32:34.431Z,1.35
2022-11-16T16:35:07.609Z,0.90
2022-11-16T16:37:37.529Z,1.00
2022-11-16T16:40:10.246Z,0.90
2022-11-16T16:42:39.227Z,0.88
2022-11-16T16:45:15.688Z,1.23
2022-11-16T16:47:44.107Z,2.55
2022-11-16T16:50:12.906Z,1.70
2022-11-16T16:52:42.684Z,1.45
2022-11-16T16:55:11.113Z,1.48
2022-11-16T16:57:39.496Z,2.17
2022-11-16T17:00:10.533Z,2.55
2022-11-16T17:02:39.319Z,1.42
2022-11-16T17:05:09.932Z,0.80
2022-11-16T17:07:38.468Z,1.05
2022-11-16T17:10:10.297Z,0.90
2022-11-16T17:12:38.689Z,1.60
2022-11-16T17:15:15.076Z,1.80
2022-11-16T17:17:47.689Z,2.08
2022-11-16T17:20:19.373Z,1.10
2022-11-16T17:22:47.723Z,1.55
2022-11-16T17:25:17.631Z,1.00
2022-11-16T17:27:46.313Z,1.08
2022-11-16T17:30:15.738Z,1.20
2022-11-16T17:32:44.075Z,1.40
2022-11-16T17:35:12.467Z,0.90
2022-11-16T17:37:40.814Z,2.22
2022-11-16T17:40:11.534Z,1.10
2022-11-16T17:42:41.268Z,1.42
2022-11-16T17:45:11.978Z,1.00
2022-11-16T17:47:40.911Z,1.70
2022-11-16T17:50:11.156Z,1.55
2022-11-16T17:52:39.489Z,1.67
2022-11-16T17:55:09.182Z,2.17
2022-11-16T17:57:37.605Z,2.15
2022-11-16T18:00:09.516Z,1.63
2022-11-16T18:02:37.873Z,2.33
2022-11-16T18:05:06.910Z,2.13
2022-11-16T18:07:37.655Z,1.70
2022-11-16T18:10:07.039Z,1.77
2022-11-16T18:12:36.264Z,1.10
2022-11-16T18:15:27.460Z,1.70
2022-11-16T18:17:55.189Z,1.60
2022-11-16T18:20:27.691Z,2.15
2022-11-16T18:22:56.434Z,3.20
2022-11-16T18:25:27.127Z,2.05
2022-11-16T18:27:56.353Z,2.03
2022-11-16T18:30:25.257Z,1.75
2022-11-16T18:32:55.254Z,2.20
2022-11-16T18:35:23.627Z,2.05
2022-11-16T18:37:52.189Z,1.88
2022-11-16T18:40:20.735Z,1.77
2022-11-16T18:42:49.439Z,1.35
2022-11-16T18:45:21.172Z,2.15
2022-11-16T18:47:49.641Z,1.13
2022-11-16T18:50:26.486Z,1.52
2022-11-16T18:52:55.285Z,1.77
2022-11-16T18:55:23.712Z,1.17
2022-11-16T18:57:52.093Z,1.60
2022-11-16T19:00:23.239Z,1.77
2022-11-16T19:02:51.550Z,1.48
2022-11-16T19:05:24.269Z,3.58
2022-11-16T19:07:52.542Z,1.27
2022-11-16T19:10:20.951Z,3.00
2022-11-16T19:12:49.334Z,1.52
2022-11-16T19:15:17.855Z,1.90
2022-11-16T19:18:06.715Z,1.73
2022-11-16T19:20:38.193Z,2.58
2022-11-16T19:23:06.520Z,2.30
2022-11-16T19:25:35.253Z,3.10
2022-11-16T19:28:04.966Z,1.92
2022-11-16T19:30:35.583Z,1.77
2022-11-16T19:33:04.327Z,1.83
2022-11-16T19:35:32.715Z,1.63
2022-11-16T19:38:02.491Z,1.85
2022-11-16T19:40:30.887Z,1.70
2022-11-16T19:42:59.287Z,2.60
2022-11-16T19:45:27.594Z,1.65
2022-11-16T19:47:57.480Z,2.20
2022-11-16T19:50:25.910Z,2.30
2022-11-16T19:52:54.217Z,1.77
2022-11-16T19:55:24.083Z,1.80
2022-11-16T19:57:52.475Z,2.15
2022-11-16T20:00:23.315Z,3.08
2022-11-16T20:02:56.170Z,3.45
2022-11-16T20:05:24.835Z,3.92
2022-11-16T20:07:53.156Z,4.35
2022-11-16T20:10:23.946Z,3.58
2022-11-16T20:12:52.241Z,3.35
2022-11-16T20:15:20.515Z,1.70
2022-11-16T20:17:48.939Z,1.65
2022-11-16T20:20:17.321Z,1.15
2022-11-16T20:22:45.941Z,1.27
2022-11-16T20:25:15.029Z,1.60
2022-11-16T20:27:44.669Z,1.30
2022-11-16T20:30:13.740Z,1.50
2022-11-16T20:32:42.165Z,1.98
2022-11-16T20:35:13.685Z,1.80
2022-11-16T20:37:46.522Z,1.60
2022-11-16T20:40:15.905Z,1.27
2022-11-16T20:42:45.814Z,1.08
2022-11-16T20:45:14.156Z,1.27
2022-11-16T20:47:42.555Z,1.45
2022-11-16T20:50:12.043Z,0.80
2022-11-16T20:52:43.185Z,0.95
2022-11-16T20:55:13.635Z,0.40
2022-11-16T20:57:42.149Z,0.85
2022-11-16T21:00:13.647Z,0.77
2022-11-16T21:02:41.998Z,0.85
2022-11-16T21:05:11.403Z,1.38
2022-11-16T21:07:41.830Z,1.45
2022-11-16T21:10:20.858Z,1.65
2022-11-16T21:13:07.470Z,0.95
2022-11-16T21:15:37.161Z,0.98
2022-11-16T21:18:05.768Z,1.17
2022-11-16T21:20:34.078Z,0.60
2022-11-16T21:23:02.574Z,1.42
2022-11-16T21:25:30.928Z,0.88
2022-11-16T21:27:59.244Z,1.02
2022-11-16T21:30:27.679Z,1.15
2022-11-16T21:32:57.355Z,0.60
2022-11-16T21:35:27.097Z,0.60
2022-11-16T21:37:55.464Z,0.50
2022-11-16T21:40:23.713Z,0.47
2022-11-16T21:42:52.899Z,0.57
2022-11-16T21:45:21.188Z,0.57
2022-11-16T21:47:51.205Z,0.32
2022-11-16T21:50:36.292Z,0.50
2022-11-16T21:53:04.820Z,0.28
2022-11-16T21:55:33.678Z,0.90
2022-11-16T21:58:03.570Z,0.30
2022-11-16T22:00:31.967Z,0.63
2022-11-16T22:03:00.324Z,0.30
2022-11-16T22:05:49.607Z,0.47
2022-11-16T22:08:20.135Z,0.13
2022-11-16T22:10:51.788Z,0.40
2022-11-16T22:13:21.009Z,0.20
2022-11-16T22:15:49.265Z,0.30
2022-11-16T22:18:17.618Z,0.40
2022-11-16T22:20:50.636Z,0.40
2022-11-16T22:23:23.414Z,0.50
2022-11-16T22:26:04.058Z,0.35
2022-11-16T22:28:33.450Z,0.25
2022-11-16T22:31:02.661Z,0.40
2022-11-16T22:33:31.404Z,0.80
2022-11-16T22:36:01.442Z,2.20
2022-11-16T22:38:30.043Z,0.60
2022-11-16T22:40:59.122Z,0.52
2022-11-16T22:43:29.901Z,0.68
2022-11-16T22:45:59.864Z,0.88
2022-11-16T22:48:34.302Z,2.33
2022-11-16T22:51:09.152Z,3.00
2022-11-16T22:53:37.898Z,0.65
2022-11-16T22:56:08.138Z,0.80
2022-11-16T22:58:37.067Z,1.00
2022-11-16T23:01:07.391Z,0.50
2022-11-16T23:03:36.518Z,0.50
2022-11-16T23:06:07.479Z,0.38
2022-11-16T23:08:36.418Z,0.30
2022-11-16T23:11:24.408Z,0.40
2022-11-16T23:14:11.453Z,0.22
2022-11-16T23:16:40.505Z,0.55
2022-11-16T23:19:29.903Z,0.30
2022-11-16T23:22:17.454Z,0.13
2022-11-16T23:25:03.712Z,0.43
2022-11-16T23:27:41.049Z,0.30
2022-11-16T23:30:13.155Z,0.30
2022-11-16T23:32:42.059Z,0.30
2022-11-16T23:35:11.052Z,0.22
2022-11-16T23:37:56.239Z,0.30
2022-11-16T23:40:26.212Z,0.20
2022-11-16T23:43:13.017Z,0.30
2022-11-16T23:45:41.769Z,0.32
2022-11-16T23:48:11.551Z,0.30
2022-11-16T23:50:39.930Z,0.22
2022-11-16T23:53:11.054Z,0.30
2022-11-16T23:55:42.115Z,0.93
2022-11-16T23:58:12.806Z,0.50
